Time;durP1;ratioP1;P1;durP2;ratioP2;P2;SDS_P1;SDS_P2;PMS_P1;PMS_P2;Temp;Humidity;BMP_temperature;BMP_pressure;BME280_temperature;BME280_humidity;BME280_pressure;Samples;Min_cycle;Max_cycle;Signal;HPM_P1;HPM_P2
2021/04/15 00:00:22;;;;;;;2.95;1.10;;;6.40;67.40;;;;;;5090575;28;20043;-69
2021/04/15 00:02:47;;;;;;;3.93;1.57;;;6.40;67.40;;;;;;5089944;28;20048;-69
2021/04/15 00:05:20;;;;;;;4.63;1.23;;;6.40;67.30;;;;;;5073764;28;20040;-69
2021/04/15 00:07:46;;;;;;;;;;;6.30;67.40;;;;;;5090618;28;20381;-71
2021/04/15 00:10:11;;;;;;;2.72;1.15;;;6.30;67.90;;;;;;5090396;28;19993;-69
2021/04/15 00:12:38;;;;;;;4.22;1.45;;;6.30;67.10;;;;;;5090497;28;20051;-69
2021/04/15 00:15:07;;;;;;;3.95;1.77;;;6.30;67.20;;;;;;5072864;28;20140;-70
2021/04/15 00:17:33;;;;;;;4.15;1.20;;;6.30;67.40;;;;;;5073325;28;20433;-69
2021/04/15 00:19:59;;;;;;;2.60;1.10;;;6.30;67.30;;;;;;5091110;28;20051;-71
2021/04/15 00:22:25;;;;;;;1.83;1.02;;;6.40;67.50;;;;;;5090554;28;20043;-69
2021/04/15 00:24:51;;;;;;;3.17;1.20;;;6.30;67.50;;;;;;5091074;28;20036;-68
2021/04/15 00:27:17;;;;;;;2.65;1.13;;;6.30;68.30;;;;;;5091813;28;20093;-69
2021/04/15 00:29:43;;;;;;;2.95;1.00;;;6.20;67.50;;;;;;5057247;28;20044;-70
2021/04/15 00:32:08;;;;;;;2.92;1.13;;;6.20;67.60;;;;;;5089271;28;20050;-70
2021/04/15 00:34:34;;;;;;;3.47;1.27;;;6.20;67.70;;;;;;5073619;28;20055;-69
2021/04/15 00:37:00;;;;;;;3.10;1.08;;;6.20;67.70;;;;;;5072591;28;20532;-69
2021/04/15 00:39:26;;;;;;;2.60;0.90;;;6.20;67.70;;;;;;5073483;28;20072;-69
2021/04/15 00:41:51;;;;;;;3.58;1.00;;;6.20;67.70;;;;;;5090764;28;20044;-71
2021/04/15 00:44:17;;;;;;;2.42;0.90;;;6.20;67.70;;;;;;5090221;28;20090;-69
2021/04/15 00:46:59;;;;;;;1.98;1.27;;;6.20;67.70;;;;;;5056819;28;20578;-70
2021/04/15 00:49:33;;;;;;;1.83;1.20;;;6.20;68.00;;;;;;5074514;28;20040;-69
2021/04/15 00:52:05;;;;;;;4.15;1.08;;;6.10;67.60;;;;;;5089258;28;20044;-69
2021/04/15 00:54:42;;;;;;;2.30;1.00;;;6.10;67.50;;;;;;5074101;28;20044;-69
2021/04/15 00:57:17;;;;;;;2.53;0.98;;;6.10;67.60;;;;;;5057274;28;20288;-69
2021/04/15 00:59:42;;;;;;;1.38;1.10;;;6.10;67.60;;;;;;5072914;28;20560;-70
2021/04/15 01:02:10;;;;;;;3.40;1.20;;;6.00;67.60;;;;;;5089101;28;20051;-70
2021/04/15 01:04:36;;;;;;;4.13;1.38;;;6.00;67.80;;;;;;5072895;28;20500;-70
2021/04/15 01:07:02;;;;;;;1.63;1.02;;;6.00;67.80;;;;;;5090234;28;20428;-71
2021/04/15 01:09:28;;;;;;;3.22;1.40;;;6.00;68.00;;;;;;5091197;28;20071;-70
2021/04/15 01:12:06;;;;;;;4.30;1.10;;;6.00;68.30;;;;;;5072495;28;20059;-71
2021/04/15 01:14:54;;;;;;;2.33;1.13;;;6.00;68.40;;;;;;5089931;28;20044;-69
2021/04/15 01:17:31;;;;;;;1.65;0.90;;;5.90;68.50;;;;;;5072903;28;20063;-69
2021/04/15 01:20:08;;;;;;;3.75;1.30;;;5.90;68.60;;;;;;5072704;28;20059;-69
2021/04/15 01:23:01;;;;;;;2.92;1.48;;;5.90;68.60;;;;;;5089890;28;20048;-70
2021/04/15 01:25:49;;;;;;;2.70;1.15;;;5.90;68.80;;;;;;5090082;28;20128;-69
2021/04/15 01:28:20;;;;;;;2.53;1.10;;;5.90;68.80;;;;;;5090365;28;20476;-69
2021/04/15 01:31:01;;;;;;;2.90;1.30;;;5.90;68.90;;;;;;5090749;28;20048;-68
2021/04/15 01:33:40;;;;;;;3.22;1.30;;;5.90;69.00;;;;;;5093737;28;20048;-69
2021/04/15 01:36:10;;;;;;;2.17;0.93;;;5.80;69.10;;;;;;5077173;28;20055;-68
2021/04/15 01:39:07;;;;;;;2.53;1.30;;;5.80;69.20;;;;;;5077886;28;20119;-69
2021/04/15 01:41:36;;;;;;;1.73;1.07;;;5.80;69.40;;;;;;5078894;28;20055;-69
2021/04/15 01:44:26;;;;;;;2.95;1.25;;;5.80;69.30;;;;;;5059192;28;20048;-70
2021/04/15 01:46:55;;;;;;;3.40;1.25;;;5.80;69.90;;;;;;5063901;28;20064;-69
2021/04/15 01:49:21;;;;;;;4.45;1.25;;;5.80;69.60;;;;;;5075999;28;20069;-69
2021/04/15 01:51:48;;;;;;;2.30;1.10;;;5.80;69.80;;;;;;5059729;28;20435;-70
2021/04/15 01:54:16;;;;;;;3.70;1.27;;;5.80;70.00;;;;;;5058657;28;20067;-70
2021/04/15 01:57:09;;;;;;;2.60;1.30;;;5.70;70.00;;;;;;5076324;28;20537;-69
2021/04/15 01:59:45;;;;;;;;;;;5.80;70.60;;;;;;5093271;28;20097;-70
2021/04/15 02:02:20;;;;;;;2.90;1.60;;;5.80;71.00;;;;;;5092312;28;20331;-69
2021/04/15 02:05:04;;;;;;;2.55;1.67;;;5.80;70.00;;;;;;5060598;28;20062;-69
2021/04/15 02:07:32;;;;;;;4.45;1.67;;;5.80;70.40;;;;;;5092599;28;20048;-69
2021/04/15 02:09:58;;;;;;;4.45;1.90;;;5.80;70.30;;;;;;5058905;28;20400;-71
2021/04/15 02:12:27;;;;;;;3.47;2.22;;;5.80;70.40;;;;;;5058758;28;20047;-68
2021/04/15 02:15:08;;;;;;;4.38;2.00;;;5.80;70.60;;;;;;5075855;28;20067;-68
2021/04/15 02:17:39;;;;;;;4.97;2.17;;;5.80;70.90;;;;;;5092635;28;20443;-69
2021/04/15 02:20:13;;;;;;;4.55;1.70;;;5.70;70.70;;;;;;5075052;28;20060;-71
2021/04/15 02:22:54;;;;;;;4.35;1.98;;;5.80;70.80;;;;;;5093866;28;20090;-69
2021/04/15 02:25:27;;;;;;;2.92;1.90;;;5.80;70.90;;;;;;5075143;28;20118;-69
2021/04/15 02:27:55;;;;;;;4.63;1.95;;;5.80;70.90;;;;;;5076277;28;20113;-69
2021/04/15 02:30:33;;;;;;;3.28;2.17;;;5.80;71.00;;;;;;5091653;28;20051;-69
2021/04/15 02:33:07;;;;;;;3.47;2.22;;;5.80;71.10;;;;;;5093316;28;20123;-69
2021/04/15 02:35:47;;;;;;;5.15;2.20;;;5.70;71.20;;;;;;5076081;28;20040;-69
2021/04/15 02:38:13;;;;;;;4.00;2.17;;;5.70;71.40;;;;;;5091228;28;20070;-69
2021/04/15 02:40:44;;;;;;;3.58;2.30;;;5.70;71.00;;;;;;5059067;28;20131;-69
2021/04/15 02:43:29;;;;;;;4.82;2.45;;;5.70;71.30;;;;;;5074450;28;20534;-69
2021/04/15 02:45:56;;;;;;;3.80;2.40;;;5.70;71.50;;;;;;5092307;28;20127;-70
2021/04/15 02:48:26;;;;;;;4.80;2.70;;;5.60;71.40;;;;;;5074803;28;20106;-69
2021/04/15 02:50:57;;;;;;;4.25;2.75;;;5.60;71.40;;;;;;5092431;28;20036;-69
2021/04/15 02:53:47;;;;;;;4.10;2.78;;;5.60;71.70;;;;;;5091490;28;20358;-69
2021/04/15 02:56:22;;;;;;;4.43;2.60;;;5.50;71.70;;;;;;5076672;28;20481;-69
2021/04/15 02:58:59;;;;;;;4.28;2.50;;;5.50;71.90;;;;;;5074999;28;20403;-71
2021/04/15 03:01:27;;;;;;;4.50;3.08;;;5.50;71.90;;;;;;5091477;28;20043;-69
2021/04/15 03:03:53;;;;;;;4.55;3.17;;;5.50;72.10;;;;;;5092056;28;20157;-69
2021/04/15 03:06:21;;;;;;;3.90;2.58;;;5.40;72.00;;;;;;5057617;28;20067;-70
2021/04/15 03:08:47;;;;;;;3.83;2.40;;;5.50;72.20;;;;;;5074974;28;20054;-69
2021/04/15 03:11:20;;;;;;;4.57;2.58;;;5.50;72.10;;;;;;5074304;28;20051;-69
2021/04/15 03:13:46;;;;;;;;;;;5.40;72.20;;;;;;5076100;28;20044;-68
2021/04/15 03:16:12;;;;;;;4.85;2.55;;;5.40;73.10;;;;;;5090808;28;19959;-70
2021/04/15 03:19:28;;;;;;;4.50;2.75;;;5.40;72.10;;;;;;5091324;28;20078;-69
2021/04/15 03:22:17;;;;;;;4.40;2.80;;;5.40;72.50;;;;;;5038343;28;20537;-70
2021/04/15 03:24:47;;;;;;;4.35;2.35;;;5.30;72.40;;;;;;5088197;28;20048;-69
2021/04/15 03:27:43;;;;;;;6.30;2.95;;;5.30;72.30;;;;;;5057630;28;20135;-69
2021/04/15 03:30:13;;;;;;;4.70;2.85;;;5.30;72.50;;;;;;5091496;28;20106;-72
2021/04/15 03:32:48;;;;;;;3.63;2.45;;;5.30;72.40;;;;;;5074637;28;20085;-69
2021/04/15 03:35:24;;;;;;;4.88;2.90;;;5.20;72.30;;;;;;5074952;28;20073;-69
2021/04/15 03:37:54;;;;;;;4.40;2.92;;;5.20;72.60;;;;;;5057892;28;20048;-68
2021/04/15 03:40:24;;;;;;;4.57;2.78;;;5.30;72.40;;;;;;5073799;28;20054;-69
2021/04/15 03:42:53;;;;;;;4.45;2.65;;;5.20;72.50;;;;;;5075077;28;20054;-69
2021/04/15 03:45:41;;;;;;;4.72;3.13;;;5.20;72.40;;;;;;5073389;28;20407;-70
2021/04/15 03:48:09;;;;;;;4.20;2.67;;;5.10;72.40;;;;;;5059883;28;20484;-70
2021/04/15 03:50:47;;;;;;;4.65;2.70;;;5.10;72.30;;;;;;5073682;28;20149;-68
2021/04/15 03:53:13;;;;;;;4.35;2.97;;;5.10;72.60;;;;;;5090650;28;20036;-71
2021/04/15 03:55:43;;;;;;;5.00;2.80;;;5.10;72.60;;;;;;5056694;28;20063;-69
2021/04/15 03:58:22;;;;;;;4.70;3.15;;;5.10;72.60;;;;;;5074102;28;20415;-68
2021/04/15 04:00:50;;;;;;;3.75;2.83;;;5.10;73.00;;;;;;5057658;28;20075;-69
2021/04/15 04:03:21;;;;;;;3.60;2.75;;;5.00;72.70;;;;;;5073636;28;20040;-70
2021/04/15 04:05:52;;;;;;;5.82;3.10;;;5.00;72.80;;;;;;5073902;28;20048;-68
2021/04/15 04:08:20;;;;;;;5.28;3.30;;;5.00;72.80;;;;;;5091759;28;20044;-69
2021/04/15 04:10:46;;;;;;;4.88;2.95;;;5.00;73.00;;;;;;5057387;28;20502;-68
2021/04/15 04:13:32;;;;;;;5.15;3.25;;;5.00;73.00;;;;;;5091006;28;20066;-69
2021/04/15 04:16:08;;;;;;;4.25;2.75;;;4.90;73.10;;;;;;5090729;28;20040;-68
2021/04/15 04:18:46;;;;;;;4.80;2.85;;;5.00;73.00;;;;;;5089870;28;20048;-68
2021/04/15 04:21:17;;;;;;;4.93;3.17;;;4.90;73.00;;;;;;5074315;28;20374;-69
2021/04/15 04:24:04;;;;;;;4.40;3.15;;;4.90;72.80;;;;;;5073566;28;20044;-69
2021/04/15 04:26:34;;;;;;;4.57;3.20;;;4.90;73.10;;;;;;5074573;28;20051;-69
2021/04/15 04:29:25;;;;;;;4.97;3.17;;;4.90;72.90;;;;;;5074088;28;20123;-69
2021/04/15 04:31:53;;;;;;;5.30;3.28;;;4.90;73.10;;;;;;5073700;28;20093;-68
2021/04/15 04:34:19;;;;;;;4.25;3.15;;;4.80;72.90;;;;;;5089888;28;20484;-71
2021/04/15 04:36:48;;;;;;;4.70;2.78;;;4.80;72.90;;;;;;5073808;28;20059;-68
2021/04/15 04:39:15;;;;;;;5.65;2.95;;;4.80;72.90;;;;;;5073629;28;20052;-68
2021/04/15 04:41:56;;;;;;;4.85;3.03;;;4.80;72.90;;;;;;5073091;28;20036;-68
2021/04/15 04:44:44;;;;;;;5.65;3.30;;;4.70;72.90;;;;;;5091005;28;20050;-70
2021/04/15 04:47:24;;;;;;;5.05;3.15;;;4.70;73.00;;;;;;5090463;28;20051;-69
2021/04/15 04:50:06;;;;;;;4.60;3.10;;;4.70;73.00;;;;;;5075064;28;20354;-69
2021/04/15 04:52:32;;;;;;;5.07;3.22;;;4.70;72.90;;;;;;5074377;28;20174;-68
2021/04/15 04:54:58;;;;;;;6.88;3.58;;;4.60;72.70;;;;;;5073375;28;20123;-69
2021/04/15 04:57:34;;;;;;;5.05;3.20;;;4.60;72.80;;;;;;5056335;28;20078;-69
2021/04/15 05:00:11;;;;;;;5.50;3.60;;;4.60;72.80;;;;;;5090583;28;20047;-68
2021/04/15 05:02:40;;;;;;;5.82;3.60;;;4.60;72.90;;;;;;5089856;28;20309;-68
2021/04/15 05:05:27;;;;;;;4.65;3.40;;;4.60;72.70;;;;;;5073864;28;20406;-69
2021/04/15 05:08:10;;;;;;;7.38;4.35;;;4.60;73.20;;;;;;5093818;28;20543;-69
2021/04/15 05:10:35;;;;;;;6.20;4.28;;;4.60;73.10;;;;;;5077474;28;20101;-69
2021/04/15 05:13:05;;;;;;;5.35;3.65;;;4.60;73.10;;;;;;5077655;28;20036;-68
2021/04/15 05:15:31;;;;;;;7.45;4.47;;;4.60;73.00;;;;;;5076820;28;20085;-69
2021/04/15 05:17:57;;;;;;;6.15;4.32;;;4.50;73.00;;;;;;5094200;28;20122;-68
2021/04/15 05:20:24;;;;;;;7.78;4.50;;;4.50;73.10;;;;;;5077060;28;20040;-72
2021/04/15 05:23:07;;;;;;;6.13;4.03;;;4.50;73.10;;;;;;5094266;28;20036;-68
2021/04/15 05:25:42;;;;;;;6.60;4.40;;;4.50;74.00;;;;;;5093561;28;20468;-68
2021/04/15 05:28:11;;;;;;;6.88;3.92;;;4.50;73.20;;;;;;5061079;28;20036;-69
2021/04/15 05:30:48;;;;;;;9.63;5.32;;;4.50;73.10;;;;;;5075872;28;20093;-68
2021/04/15 05:33:19;;;;;;;7.82;4.40;;;4.50;73.10;;;;;;5089415;28;20044;-69
2021/04/15 05:36:04;;;;;;;6.95;4.97;;;4.50;73.10;;;;;;5116355;27;20039;-69
2021/04/15 05:38:42;;;;;;;6.90;4.95;;;4.50;73.40;;;;;;5106035;28;20439;-70
2021/04/15 05:41:11;;;;;;;9.27;5.78;;;4.50;73.30;;;;;;5073044;28;20040;-69
2021/04/15 05:43:47;;;;;;;8.10;5.32;;;4.40;72.90;;;;;;5105458;28;20419;-70
2021/04/15 05:46:24;;;;;;;7.93;4.80;;;4.50;73.20;;;;;;5072781;28;20473;-70
2021/04/15 05:48:54;;;;;;;7.30;4.75;;;4.50;72.90;;;;;;5071849;28;20488;-69
2021/04/15 05:51:24;;;;;;;8.13;4.78;;;4.50;72.90;;;;;;5072772;28;20198;-70
2021/04/15 05:53:53;;;;;;;7.28;4.80;;;4.50;73.00;;;;;;5071434;28;20048;-69
2021/04/15 05:56:22;;;;;;;8.55;5.65;;;4.50;73.10;;;;;;5072335;28;20045;-70
2021/04/15 05:59:10;;;;;;;7.90;4.50;;;4.50;73.00;;;;;;5088518;28;20206;-70
2021/04/15 06:01:46;;;;;;;7.80;4.60;;;4.60;73.40;;;;;;5088331;28;20058;-70
2021/04/15 06:04:28;;;;;;;9.63;5.13;;;4.60;73.10;;;;;;5077561;28;20036;-71
2021/04/15 06:06:55;;;;;;;8.82;4.82;;;4.60;73.40;;;;;;5074858;28;20067;-69
2021/04/15 06:09:21;;;;;;;8.02;4.45;;;4.60;73.10;;;;;;5117476;27;20361;-70
2021/04/15 06:12:09;;;;;;;8.18;4.63;;;4.60;73.20;;;;;;5073758;28;20044;-69
2021/04/15 06:14:45;;;;;;;8.25;4.30;;;4.60;73.50;;;;;;5074218;28;20036;-69
2021/04/15 06:17:41;;;;;;;7.72;5.13;;;4.60;73.20;;;;;;5092169;28;20051;-70
2021/04/15 06:20:11;;;;;;;7.88;4.72;;;4.60;73.40;;;;;;5090944;28;20076;-70
2021/04/15 06:22:42;;;;;;;8.57;5.00;;;4.70;74.00;;;;;;5091307;28;20064;-70
2021/04/15 06:25:18;;;;;;;6.15;4.15;;;4.60;73.20;;;;;;5059342;28;20540;-72
2021/04/15 06:27:44;;;;;;;10.98;4.65;;;4.70;73.20;;;;;;5086296;28;20036;-73
2021/04/15 06:30:24;;;;;;;7.68;4.95;;;4.70;73.20;;;;;;5091121;28;20056;-72
2021/04/15 06:33:07;;;;;;;13.10;2.80;;;4.70;73.30;;;;;;5091041;28;20032;-73
2021/04/15 06:35:34;;;;;;;9.93;4.10;;;5.10;75.00;;;;;;5090836;28;20434;-77
2021/04/15 06:38:04;;;;;;;9.60;4.18;;;5.10;73.50;;;;;;5091504;28;20436;-76
2021/04/15 06:40:54;;;;;;;8.98;4.47;;;5.10;73.20;;;;;;5088856;28;20044;-73
2021/04/15 06:43:48;;;;;;;7.72;4.43;;;5.10;73.20;;;;;;5088768;28;20036;-75
2021/04/15 06:46:35;;;;;;;9.30;4.18;;;5.10;73.10;;;;;;5046390;28;20055;-73
2021/04/15 06:49:29;;;;;;;5.20;2.08;;;5.10;73.00;;;;;;5091419;28;20060;-72
2021/04/15 06:52:26;;;;;;;5.05;1.90;;;5.20;75.90;;;;;;5091991;28;20101;-75
2021/04/15 06:55:23;;;;;;;5.38;3.05;;;5.50;76.00;;;;;;5081632;28;20473;-72
2021/04/15 06:57:59;;;;;;;7.72;4.80;;;5.90;75.50;;;;;;5089341;28;20056;-73
2021/04/15 07:00:34;;;;;;;8.23;3.90;;;5.90;73.20;;;;;;5124527;27;20106;-73
2021/04/15 07:03:33;;;;;;;9.13;4.47;;;5.90;72.80;;;;;;5091806;28;20029;-73
2021/04/15 07:06:01;;;;;;;6.68;4.00;;;5.80;72.80;;;;;;5089979;28;20043;-72
2021/04/15 07:09:16;;;;;;;8.10;4.18;;;5.80;72.70;;;;;;5090365;28;20035;-73
2021/04/15 07:11:55;;;;;;;7.45;3.78;;;5.70;72.60;;;;;;5091329;28;20044;-73
2021/04/15 07:14:34;;;;;;;7.40;3.75;;;5.70;72.60;;;;;;5090649;28;20115;-73
2021/04/15 07:17:24;;;;;;;6.55;3.20;;;5.70;72.70;;;;;;5090292;28;20094;-73
2021/04/15 07:19:56;;;;;;;8.60;3.60;;;5.60;72.80;;;;;;5089824;28;20044;-73
2021/04/15 07:22:54;;;;;;;8.10;3.90;;;5.60;72.90;;;;;;5073892;28;20047;-73
2021/04/15 07:25:37;;;;;;;7.40;3.53;;;5.60;72.90;;;;;;5075248;28;20123;-73
2021/04/15 07:28:28;;;;;;;7.35;3.92;;;5.60;73.00;;;;;;5090060;28;20040;-72
2021/04/15 07:31:19;;;;;;;7.18;3.85;;;5.60;73.00;;;;;;5072302;28;20119;-72
2021/04/15 07:34:19;;;;;;;7.47;3.63;;;5.60;73.20;;;;;;5089703;28;20043;-73
2021/04/15 07:37:01;;;;;;;6.47;3.63;;;5.70;73.20;;;;;;5074997;28;20085;-73
2021/04/15 07:39:33;;;;;;;7.82;4.05;;;5.70;74.00;;;;;;5073567;28;20514;-72
2021/04/15 07:42:06;;;;;;;8.47;3.70;;;5.80;73.30;;;;;;5090428;28;20044;-73
2021/04/15 07:45:04;;;;;;;13.82;4.60;;;5.80;73.30;;;;;;5090265;28;20365;-72
2021/04/15 07:47:51;;;;;;;10.00;4.25;;;5.90;73.60;;;;;;5072632;28;20049;-73
2021/04/15 07:50:39;;;;;;;8.55;4.22;;;6.00;73.80;;;;;;5089209;28;20043;-72
2021/04/15 07:53:36;;;;;;;12.20;5.38;;;6.00;73.50;;;;;;5089524;28;20050;-72
2021/04/15 07:56:32;;;;;;;9.52;5.18;;;6.10;74.00;;;;;;5072038;28;20044;-72
2021/04/15 07:59:05;;;;;;;10.07;4.90;;;6.20;74.10;;;;;;5088597;28;20542;-73
2021/04/15 08:01:55;;;;;;;5.30;1.88;;;6.30;73.90;;;;;;5089280;28;20067;-72
2021/04/15 08:04:59;;;;;;;9.07;2.80;;;6.90;75.30;;;;;;5086326;28;20063;-73
2021/04/15 08:07:40;;;;;;;7.53;3.88;;;7.40;74.40;;;;;;5088099;28;20048;-73
2021/04/15 08:10:09;;;;;;;6.35;2.80;;;7.60;72.20;;;;;;5087528;28;20039;-72
2021/04/15 08:13:05;;;;;;;9.90;4.78;;;7.70;72.50;;;;;;5086941;28;20051;-75
2021/04/15 08:15:32;;;;;;;10.07;4.47;;;8.10;73.70;;;;;;5071716;28;20052;-74
2021/04/15 08:18:28;;;;;;;5.47;3.42;;;8.40;72.40;;;;;;5104487;28;20040;-71
2021/04/15 08:21:18;;;;;;;7.90;3.88;;;8.70;71.60;;;;;;5081817;28;20040;-73
2021/04/15 08:24:03;;;;;;;7.38;4.25;;;8.70;70.30;;;;;;5069243;28;20041;-75
2021/04/15 08:26:53;;;;;;;7.97;4.53;;;8.70;69.80;;;;;;5116290;27;20044;-75
2021/04/15 08:29:48;;;;;;;8.68;4.80;;;8.60;69.20;;;;;;5071902;28;20047;-73
2021/04/15 08:32:26;;;;;;;10.07;4.25;;;8.60;69.50;;;;;;5062012;28;20052;-74
2021/04/15 08:35:27;;;;;;;10.07;4.30;;;8.60;69.80;;;;;;5086975;28;20048;-75
2021/04/15 08:38:13;;;;;;;9.50;4.22;;;8.50;69.70;;;;;;5087105;28;20048;-73
2021/04/15 08:40:45;;;;;;;8.68;4.32;;;8.50;69.80;;;;;;5114401;27;20119;-74
2021/04/15 08:43:51;;;;;;;8.43;3.70;;;8.50;69.60;;;;;;5086763;28;20064;-71
2021/04/15 08:46:31;;;;;;;8.77;4.32;;;9.10;72.40;;;;;;5078042;28;20481;-74
2021/04/15 08:49:09;;;;;;;11.95;5.45;;;9.30;70.10;;;;;;5078817;28;20059;-77
2021/04/15 08:52:03;;;;;;;9.30;4.97;;;9.50;70.20;;;;;;5086896;28;20049;-75
2021/04/15 08:55:01;;;;;;;9.73;6.07;;;9.60;68.80;;;;;;5087652;28;20036;-72
2021/04/15 08:57:59;;;;;;;8.32;4.30;;;9.70;68.80;;;;;;5080372;28;20048;-74
2021/04/15 09:00:34;;;;;;;6.97;4.47;;;9.70;67.20;;;;;;5082241;28;20048;-74
2021/04/15 09:03:22;;;;;;;9.52;4.70;;;9.60;67.20;;;;;;5088261;28;20040;-73
2021/04/15 09:06:07;;;;;;;9.60;4.32;;;9.60;68.20;;;;;;5088441;28;20046;-73
2021/04/15 09:08:42;;;;;;;10.35;4.78;;;9.60;67.30;;;;;;5121485;28;20143;-73
2021/04/15 09:11:33;;;;;;;9.23;4.43;;;9.60;67.00;;;;;;5083216;28;20399;-73
2021/04/15 09:14:30;;;;;;;5.90;3.70;;;9.60;67.00;;;;;;5113170;28;20048;-74
2021/04/15 09:17:00;;;;;;;7.18;3.60;;;9.60;66.50;;;;;;5089302;28;20503;-73
2021/04/15 09:19:45;;;;;;;10.98;4.13;;;9.60;66.70;;;;;;5122190;28;20062;-74
2021/04/15 09:22:17;;;;;;;9.68;4.97;;;9.50;65.60;;;;;;5088904;28;20040;-74
2021/04/15 09:24:48;;;;;;;6.57;3.78;;;9.50;65.50;;;;;;5088788;28;20056;-74
2021/04/15 09:27:24;;;;;;;9.40;4.13;;;9.50;65.30;;;;;;5087500;28;20039;-74
2021/04/15 09:29:54;;;;;;;8.05;4.88;;;9.50;65.20;;;;;;5089594;28;20046;-73
2021/04/15 09:32:24;;;;;;;9.20;4.57;;;9.40;64.80;;;;;;5079046;28;20040;-73
2021/04/15 09:35:05;;;;;;;8.07;3.65;;;9.40;64.70;;;;;;5071025;28;20155;-75
2021/04/15 09:38:08;;;;;;;5.63;3.63;;;9.40;64.20;;;;;;5088590;28;20484;-74
2021/04/15 09:40:41;;;;;;;7.25;3.70;;;9.50;65.00;;;;;;5089625;28;20056;-75
2021/04/15 09:43:37;;;;;;;10.23;4.53;;;9.60;65.40;;;;;;5087195;28;20143;-75
2021/04/15 09:46:32;;;;;;;7.05;4.10;;;9.70;64.60;;;;;;5088126;28;20097;-74
2021/04/15 09:49:00;;;;;;;6.97;3.63;;;9.80;64.00;;;;;;5071481;28;20048;-76
2021/04/15 09:51:51;;;;;;;7.35;4.13;;;9.80;63.40;;;;;;5086081;28;20493;-74
2021/04/15 09:54:25;;;;;;;8.63;3.78;;;9.90;63.40;;;;;;5089604;28;20036;-75
2021/04/15 09:57:05;;;;;;;6.35;4.05;;;10.10;63.50;;;;;;5089713;28;20079;-76
2021/04/15 10:00:01;;;;;;;6.63;3.50;;;10.30;63.70;;;;;;5061717;28;20381;-74
2021/04/15 10:02:48;;;;;;;5.53;2.63;;;10.30;62.60;;;;;;5084522;28;20048;-75
2021/04/15 10:05:19;;;;;;;6.30;3.28;;;10.50;62.20;;;;;;5096667;28;20044;-75
2021/04/15 10:07:50;;;;;;;7.63;3.10;;;10.60;62.30;;;;;;5112508;28;20511;-74
2021/04/15 10:10:29;;;;;;;6.28;2.85;;;10.80;61.70;;;;;;5095121;28;20123;-76
2021/04/15 10:13:07;;;;;;;8.68;3.20;;;10.90;60.60;;;;;;5127443;27;20058;-74
2021/04/15 10:15:37;;;;;;;5.57;2.78;;;11.00;60.90;;;;;;5100153;28;20063;-74
2021/04/15 10:18:18;;;;;;;6.13;3.33;;;11.20;60.70;;;;;;5115640;28;20079;-76
2021/04/15 10:21:05;;;;;;;5.53;2.45;;;11.30;59.30;;;;;;5099385;28;20040;-75
2021/04/15 10:23:44;;;;;;;7.88;2.33;;;11.40;58.60;;;;;;5098631;28;20048;-75
2021/04/15 10:26:29;;;;;;;3.88;2.00;;;11.50;57.30;;;;;;5114370;28;20552;-77
2021/04/15 10:29:19;;;;;;;6.28;2.55;;;11.50;56.40;;;;;;5098799;28;20448;-74
2021/04/15 10:31:50;;;;;;;6.15;2.08;;;11.50;54.70;;;;;;5099025;28;20043;-75
2021/04/15 10:34:47;;;;;;;7.35;2.58;;;11.40;54.10;;;;;;5097282;28;20054;-75
2021/04/15 10:37:46;;;;;;;6.22;2.00;;;11.50;54.50;;;;;;5065196;28;20056;-76
2021/04/15 10:40:47;;;;;;;3.67;1.73;;;11.50;53.60;;;;;;5089448;28;20472;-80
2021/04/15 10:43:42;;;;;;;6.30;1.73;;;11.70;54.70;;;;;;5082253;28;20490;-73
2021/04/15 10:46:35;;;;;;;5.65;2.20;;;12.10;61.20;;;;;;5087714;28;20039;-72
2021/04/15 10:49:12;;;;;;;5.45;2.03;;;12.60;56.40;;;;;;5086489;28;20045;-73
2021/04/15 10:52:13;;;;;;;5.00;2.13;;;12.70;54.40;;;;;;5094641;28;20066;-71
2021/04/15 10:54:40;;;;;;;5.88;2.10;;;12.80;50.20;;;;;;5074193;28;20113;-71
2021/04/15 10:57:26;;;;;;;7.85;2.40;;;12.70;51.30;;;;;;5074087;28;20036;-75
2021/04/15 10:59:52;;;;;;;5.18;2.33;;;12.60;49.30;;;;;;5106873;28;20085;-74
2021/04/15 11:02:32;;;;;;;7.35;2.65;;;12.70;49.70;;;;;;5078190;28;20055;-73
2021/04/15 11:05:40;;;;;;;8.63;2.17;;;12.80;50.80;;;;;;5092321;28;20590;-74
2021/04/15 11:08:08;;;;;;;5.20;2.45;;;13.40;54.80;;;;;;4999141;28;20053;-74
2021/04/15 11:10:35;;;;;;;6.18;1.85;;;13.70;53.00;;;;;;5004785;28;20072;-74
2021/04/15 11:13:27;;;;;;;4.57;1.92;;;14.10;52.10;;;;;;5042479;28;20052;-73
2021/04/15 11:15:58;;;;;;;5.85;2.47;;;14.50;49.80;;;;;;5085376;28;20048;-74
2021/04/15 11:18:36;;;;;;;5.45;1.98;;;14.70;49.40;;;;;;5107780;28;20056;-75
2021/04/15 11:21:21;;;;;;;5.97;2.20;;;15.00;48.30;;;;;;5126718;27;20067;-74
2021/04/15 11:23:50;;;;;;;5.47;2.10;;;15.30;47.40;;;;;;5098644;28;20095;-74
2021/04/15 11:26:17;;;;;;;5.78;2.30;;;15.60;47.80;;;;;;5098217;28;20043;-73
2021/04/15 11:28:43;;;;;;;4.78;2.40;;;15.80;46.30;;;;;;5082164;28;20048;-74
2021/04/15 11:31:09;;;;;;;5.20;2.45;;;16.00;44.80;;;;;;5098452;28;20066;-73
2021/04/15 11:33:51;;;;;;;5.00;2.50;;;16.20;43.40;;;;;;5099380;28;20150;-73
2021/04/15 11:36:32;;;;;;;3.53;2.30;;;16.40;42.00;;;;;;5097795;28;20046;-74
2021/04/15 11:39:04;;;;;;;5.53;3.05;;;16.70;40.70;;;;;;5115463;28;20476;-74
2021/04/15 11:41:31;;;;;;;5.50;2.50;;;17.00;41.00;;;;;;5098143;28;20048;-73
2021/04/15 11:44:09;;;;;;;4.03;3.13;;;17.20;40.50;;;;;;5132254;27;20043;-74
2021/04/15 11:46:46;;;;;;;4.10;2.40;;;17.20;38.60;;;;;;5097975;28;20576;-75
2021/04/15 11:49:30;;;;;;;5.63;2.63;;;17.00;40.20;;;;;;5098304;28;20559;-75
2021/04/15 11:52:06;;;;;;;3.92;2.33;;;16.80;38.30;;;;;;5114359;28;20115;-73
2021/04/15 11:54:37;;;;;;;6.70;2.22;;;16.60;39.70;;;;;;5113475;28;20095;-74
2021/04/15 11:57:38;;;;;;;6.30;2.78;;;16.40;39.60;;;;;;5131911;27;20484;-75
2021/04/15 12:00:04;;;;;;;5.70;2.47;;;16.40;37.40;;;;;;5083352;28;20070;-74
2021/04/15 12:02:34;;;;;;;5.43;2.40;;;16.50;39.60;;;;;;5080523;28;20055;-76
2021/04/15 12:05:26;;;;;;;3.58;2.17;;;16.70;38.90;;;;;;5114960;28;20048;-74
2021/04/15 12:07:55;;;;;;;;;;;16.80;37.20;;;;;;5071022;28;20048;-74
2021/04/15 12:10:23;;;;;;;17.00;4.07;;;16.70;35.20;;;;;;5131344;27;19923;-75
2021/04/15 12:12:50;;;;;;;21.90;5.07;;;16.60;39.20;;;;;;5114402;28;20059;-74
2021/04/15 12:15:19;;;;;;;10.35;3.22;;;16.40;38.20;;;;;;5097159;28;20048;-75
2021/04/15 12:18:11;;;;;;;5.78;3.13;;;16.20;38.00;;;;;;5097567;28;20048;-74
2021/04/15 12:21:11;;;;;;;4.88;2.25;;;16.00;37.10;;;;;;5080606;28;20134;-73
2021/04/15 12:23:47;;;;;;;7.88;2.58;;;15.80;36.20;;;;;;5082653;28;20094;-74
2021/04/15 12:26:23;;;;;;;5.15;2.53;;;15.70;38.50;;;;;;5097540;28;20043;-74
2021/04/15 12:28:55;;;;;;;5.85;2.75;;;15.60;37.60;;;;;;5097519;28;20040;-74
2021/04/15 12:31:40;;;;;;;3.65;1.90;;;15.50;37.40;;;;;;5098698;28;20193;-74
2021/04/15 12:34:15;;;;;;;3.50;1.92;;;15.40;36.20;;;;;;5081844;28;20040;-73
2021/04/15 12:36:46;;;;;;;4.32;2.40;;;15.40;36.00;;;;;;5098316;28;20094;-72
2021/04/15 12:39:20;;;;;;;2.88;2.10;;;15.50;36.60;;;;;;5114254;28;20081;-73
2021/04/15 12:41:46;;;;;;;4.82;2.47;;;15.80;36.10;;;;;;5077588;28;20071;-73
2021/04/15 12:44:18;;;;;;;5.00;2.15;;;15.90;36.60;;;;;;5097050;28;20036;-76
2021/04/15 12:46:44;;;;;;;11.25;1.60;;;15.80;35.70;;;;;;5100626;28;20052;-75
2021/04/15 12:49:11;;;;;;;4.22;2.15;;;15.90;38.60;;;;;;5094880;28;20032;-76
2021/04/15 12:51:48;;;;;;;3.97;2.20;;;16.10;39.40;;;;;;5110483;28;20032;-77
2021/04/15 12:54:17;;;;;;;4.60;2.20;;;15.90;36.90;;;;;;5128335;28;20044;-76
2021/04/15 12:56:52;;;;;;;2.97;2.00;;;15.70;36.90;;;;;;5104388;28;20153;-76
2021/04/15 12:59:35;;;;;;;4.47;2.10;;;15.60;35.30;;;;;;5129542;28;20040;-76
2021/04/15 13:02:01;;;;;;;7.10;2.35;;;15.40;35.90;;;;;;5076801;28;20066;-76
2021/04/15 13:04:30;;;;;;;3.78;1.65;;;15.30;36.40;;;;;;5142229;27;20425;-77
2021/04/15 13:07:07;;;;;;;4.97;2.58;;;15.20;35.70;;;;;;5098015;28;20086;-77
2021/04/15 13:09:34;;;;;;;4.22;2.00;;;15.10;35.40;;;;;;5095376;28;20066;-77
2021/04/15 13:12:09;;;;;;;3.92;1.98;;;15.20;36.00;;;;;;5094861;28;20169;-77
2021/04/15 13:14:36;;;;;;;5.90;2.17;;;15.30;35.50;;;;;;5060351;28;20101;-77
2021/04/15 13:17:02;;;;;;;3.13;2.03;;;15.40;34.90;;;;;;5096375;28;20048;-76
2021/04/15 13:19:30;;;;;;;4.05;2.05;;;15.50;34.30;;;;;;5095541;28;20420;-74
2021/04/15 13:22:09;;;;;;;4.38;2.35;;;15.60;33.70;;;;;;5096675;28;20056;-74
2021/04/15 13:24:47;;;;;;;4.32;1.92;;;15.90;32.20;;;;;;5105166;28;20036;-77
2021/04/15 13:27:35;;;;;;;3.90;1.90;;;16.10;31.90;;;;;;5098175;28;20040;-75
2021/04/15 13:30:19;;;;;;;2.63;1.85;;;16.40;31.10;;;;;;5098785;28;20090;-77
2021/04/15 13:33:08;;;;;;;3.88;2.20;;;16.60;31.00;;;;;;5098701;28;20096;-77
2021/04/15 13:35:44;;;;;;;3.95;2.00;;;16.80;31.00;;;;;;5096534;28;20202;-76
2021/04/15 13:38:31;;;;;;;4.32;2.00;;;16.90;31.50;;;;;;5099820;28;20040;-74
2021/04/15 13:41:22;;;;;;;2.55;1.73;;;16.80;30.60;;;;;;5094905;28;20044;-74
2021/04/15 13:43:59;;;;;;;3.03;1.52;;;16.70;30.40;;;;;;5093414;28;20590;-73
2021/04/15 13:46:25;;;;;;;4.35;1.55;;;16.70;32.60;;;;;;5111613;27;20040;-75
2021/04/15 13:49:08;;;;;;;2.92;1.45;;;16.50;32.20;;;;;;5094245;28;20040;-74